sensor_id;sensor_type;location;lat;lon;timestamp;P1;durP1;ratioP1;P2;durP2;ratioP2
21979;SDS011;11154;48.558;9.234;2023-02-24T00:00:13;17.25;;;8.95;;
21979;SDS011;11154;48.558;9.234;2023-02-24T00:02:31;12.38;;;8.50;;
21979;SDS011;11154;48.558;9.234;2023-02-24T00:04:35;12.40;;;8.27;;
21979;SDS011;11154;48.558;9.234;2023-02-24T00:06:39;17.10;;;9.43;;
21979;SDS011;11154;48.558;9.234;2023-02-24T00:08:42;18.13;;;10.85;;
21979;SDS011;11154;48.558;9.234;2023-02-24T00:10:45;16.00;;;9.60;;
21979;SDS011;11154;48.558;9.234;2023-02-24T00:12:47;14.23;;;9.10;;
21979;SDS011;11154;48.558;9.234;2023-02-24T00:14:48;17.70;;;8.82;;
21979;SDS011;11154;48.558;9.234;2023-02-24T00:16:50;13.32;;;8.65;;
21979;SDS011;11154;48.558;9.234;2023-02-24T00:18:53;13.27;;;8.80;;
21979;SDS011;11154;48.558;9.234;2023-02-24T00:20:56;15.13;;;8.23;;
21979;SDS011;11154;48.558;9.234;2023-02-24T00:22:57;17.20;;;9.00;;
21979;SDS011;11154;48.558;9.234;2023-02-24T00:25:00;15.20;;;8.40;;
21979;SDS011;11154;48.558;9.234;2023-02-24T00:27:03;12.73;;;8.05;;
21979;SDS011;11154;48.558;9.234;2023-02-24T00:29:07;13.32;;;8.75;;
21979;SDS011;11154;48.558;9.234;2023-02-24T00:31:12;13.15;;;8.98;;
21979;SDS011;11154;48.558;9.234;2023-02-24T00:33:15;16.02;;;8.55;;
21979;SDS011;11154;48.558;9.234;2023-02-24T00:35:21;14.25;;;8.68;;
21979;SDS011;11154;48.558;9.234;2023-02-24T00:37:24;11.10;;;7.70;;
21979;SDS011;11154;48.558;9.234;2023-02-24T00:39:26;16.48;;;9.15;;
21979;SDS011;11154;48.558;9.234;2023-02-24T00:41:32;13.63;;;8.27;;
21979;SDS011;11154;48.558;9.234;2023-02-24T00:43:34;13.02;;;8.20;;
21979;SDS011;11154;48.558;9.234;2023-02-24T00:45:37;14.98;;;8.45;;
21979;SDS011;11154;48.558;9.234;2023-02-24T00:47:39;13.30;;;7.70;;
21979;SDS011;11154;48.558;9.234;2023-02-24T00:49:41;12.43;;;7.70;;
21979;SDS011;11154;48.558;9.234;2023-02-24T00:51:44;14.35;;;6.95;;
21979;SDS011;11154;48.558;9.234;2023-02-24T00:53:49;14.90;;;7.65;;
21979;SDS011;11154;48.558;9.234;2023-02-24T00:55:57;11.00;;;7.15;;
21979;SDS011;11154;48.558;9.234;2023-02-24T00:57:59;14.82;;;7.18;;
21979;SDS011;11154;48.558;9.234;2023-02-24T01:00:02;12.65;;;7.13;;
21979;SDS011;11154;48.558;9.234;2023-02-24T01:02:09;12.13;;;7.35;;
21979;SDS011;11154;48.558;9.234;2023-02-24T01:04:11;12.35;;;7.68;;
21979;SDS011;11154;48.558;9.234;2023-02-24T01:06:14;11.70;;;7.22;;
21979;SDS011;11154;48.558;9.234;2023-02-24T01:08:19;13.63;;;7.13;;
21979;SDS011;11154;48.558;9.234;2023-02-24T01:10:23;12.30;;;6.75;;
21979;SDS011;11154;48.558;9.234;2023-02-24T01:12:27;14.20;;;8.02;;
21979;SDS011;11154;48.558;9.234;2023-02-24T01:14:49;13.63;;;7.32;;
21979;SDS011;11154;48.558;9.234;2023-02-24T01:16:52;14.68;;;7.38;;
21979;SDS011;11154;48.558;9.234;2023-02-24T01:18:54;13.88;;;7.45;;
21979;SDS011;11154;48.558;9.234;2023-02-24T01:20:56;12.93;;;7.68;;
21979;SDS011;11154;48.558;9.234;2023-02-24T01:22:58;12.90;;;7.38;;
21979;SDS011;11154;48.558;9.234;2023-02-24T01:25:02;15.02;;;7.57;;
21979;SDS011;11154;48.558;9.234;2023-02-24T01:27:09;14.52;;;7.45;;
21979;SDS011;11154;48.558;9.234;2023-02-24T01:29:11;13.63;;;7.32;;
21979;SDS011;11154;48.558;9.234;2023-02-24T01:31:14;15.13;;;7.80;;
21979;SDS011;11154;48.558;9.234;2023-02-24T01:33:19;16.77;;;8.35;;
21979;SDS011;11154;48.558;9.234;2023-02-24T01:35:21;11.50;;;7.18;;
21979;SDS011;11154;48.558;9.234;2023-02-24T01:37:23;14.10;;;7.70;;
21979;SDS011;11154;48.558;9.234;2023-02-24T01:39:25;13.18;;;7.35;;
21979;SDS011;11154;48.558;9.234;2023-02-24T01:41:27;17.38;;;7.85;;
21979;SDS011;11154;48.558;9.234;2023-02-24T01:43:31;12.15;;;6.93;;
21979;SDS011;11154;48.558;9.234;2023-02-24T01:45:33;16.10;;;7.70;;
21979;SDS011;11154;48.558;9.234;2023-02-24T01:47:39;15.90;;;7.30;;
21979;SDS011;11154;48.558;9.234;2023-02-24T01:49:42;15.38;;;7.32;;
21979;SDS011;11154;48.558;9.234;2023-02-24T01:51:47;11.63;;;6.82;;
21979;SDS011;11154;48.558;9.234;2023-02-24T01:53:52;14.40;;;8.75;;
21979;SDS011;11154;48.558;9.234;2023-02-24T01:55:55;14.88;;;8.32;;
21979;SDS011;11154;48.558;9.234;2023-02-24T01:57:57;13.80;;;9.60;;
21979;SDS011;11154;48.558;9.234;2023-02-24T02:00:03;14.65;;;8.35;;
21979;SDS011;11154;48.558;9.234;2023-02-24T02:02:18;13.15;;;7.97;;
21979;SDS011;11154;48.558;9.234;2023-02-24T02:04:24;12.65;;;7.90;;
21979;SDS011;11154;48.558;9.234;2023-02-24T02:06:34;13.77;;;9.25;;
21979;SDS011;11154;48.558;9.234;2023-02-24T02:08:39;12.55;;;9.40;;
21979;SDS011;11154;48.558;9.234;2023-02-24T02:10:42;12.55;;;9.20;;
21979;SDS011;11154;48.558;9.234;2023-02-24T02:12:43;12.32;;;9.55;;
21979;SDS011;11154;48.558;9.234;2023-02-24T02:14:46;12.00;;;9.27;;
21979;SDS011;11154;48.558;9.234;2023-02-24T02:16:56;12.38;;;9.05;;
21979;SDS011;11154;48.558;9.234;2023-02-24T02:19:16;13.57;;;8.70;;
21979;SDS011;11154;48.558;9.234;2023-02-24T02:24:10;12.15;;;9.15;;
21979;SDS011;11154;48.558;9.234;2023-02-24T02:26:30;12.85;;;9.90;;
21979;SDS011;11154;48.558;9.234;2023-02-24T02:29:10;13.65;;;9.48;;
21979;SDS011;11154;48.558;9.234;2023-02-24T02:31:38;12.35;;;9.25;;
21979;SDS011;11154;48.558;9.234;2023-02-24T02:34:17;14.02;;;9.07;;
21979;SDS011;11154;48.558;9.234;2023-02-24T02:36:29;12.32;;;8.55;;
21979;SDS011;11154;48.558;9.234;2023-02-24T02:38:36;11.77;;;8.85;;
21979;SDS011;11154;48.558;9.234;2023-02-24T02:40:51;12.82;;;8.68;;
21979;SDS011;11154;48.558;9.234;2023-02-24T02:43:00;12.57;;;8.73;;
21979;SDS011;11154;48.558;9.234;2023-02-24T02:45:07;13.43;;;9.43;;
21979;SDS011;11154;48.558;9.234;2023-02-24T02:47:15;11.05;;;8.52;;
21979;SDS011;11154;48.558;9.234;2023-02-24T02:49:25;13.45;;;9.18;;
21979;SDS011;11154;48.558;9.234;2023-02-24T02:51:32;12.38;;;9.23;;
21979;SDS011;11154;48.558;9.234;2023-02-24T02:53:41;12.68;;;9.38;;
21979;SDS011;11154;48.558;9.234;2023-02-24T02:55:49;11.73;;;9.82;;
21979;SDS011;11154;48.558;9.234;2023-02-24T02:57:54;12.55;;;9.18;;
21979;SDS011;11154;48.558;9.234;2023-02-24T03:00:01;11.45;;;9.43;;
21979;SDS011;11154;48.558;9.234;2023-02-24T03:02:10;13.68;;;9.43;;
21979;SDS011;11154;48.558;9.234;2023-02-24T03:04:14;12.73;;;9.45;;
21979;SDS011;11154;48.558;9.234;2023-02-24T03:06:23;12.93;;;10.30;;
21979;SDS011;11154;48.558;9.234;2023-02-24T03:08:28;14.68;;;9.15;;
21979;SDS011;11154;48.558;9.234;2023-02-24T03:10:36;10.88;;;9.25;;
21979;SDS011;11154;48.558;9.234;2023-02-24T03:12:44;15.60;;;9.70;;
21979;SDS011;11154;48.558;9.234;2023-02-24T03:14:50;15.68;;;9.77;;
21979;SDS011;11154;48.558;9.234;2023-02-24T03:16:56;13.02;;;9.38;;
21979;SDS011;11154;48.558;9.234;2023-02-24T03:19:03;14.25;;;9.00;;
21979;SDS011;11154;48.558;9.234;2023-02-24T03:21:08;12.75;;;8.65;;
21979;SDS011;11154;48.558;9.234;2023-02-24T03:23:17;11.32;;;8.68;;
21979;SDS011;11154;48.558;9.234;2023-02-24T03:25:25;12.23;;;8.90;;
21979;SDS011;11154;48.558;9.234;2023-02-24T03:27:39;13.95;;;9.15;;
21979;SDS011;11154;48.558;9.234;2023-02-24T03:29:46;13.55;;;9.23;;
21979;SDS011;11154;48.558;9.234;2023-02-24T03:31:54;11.07;;;8.25;;
21979;SDS011;11154;48.558;9.234;2023-02-24T03:34:01;12.98;;;9.40;;
21979;SDS011;11154;48.558;9.234;2023-02-24T03:36:06;12.38;;;9.15;;
21979;SDS011;11154;48.558;9.234;2023-02-24T03:38:08;11.73;;;9.15;;
21979;SDS011;11154;48.558;9.234;2023-02-24T03:40:15;14.00;;;8.85;;
21979;SDS011;11154;48.558;9.234;2023-02-24T03:42:19;13.73;;;9.50;;
21979;SDS011;11154;48.558;9.234;2023-02-24T03:44:23;11.23;;;8.70;;
21979;SDS011;11154;48.558;9.234;2023-02-24T03:46:25;14.52;;;8.82;;
21979;SDS011;11154;48.558;9.234;2023-02-24T03:48:29;13.23;;;10.05;;
21979;SDS011;11154;48.558;9.234;2023-02-24T03:50:33;12.82;;;9.60;;
21979;SDS011;11154;48.558;9.234;2023-02-24T03:52:38;12.20;;;8.98;;
21979;SDS011;11154;48.558;9.234;2023-02-24T03:54:57;14.13;;;8.38;;
21979;SDS011;11154;48.558;9.234;2023-02-24T03:57:15;12.80;;;8.55;;
21979;SDS011;11154;48.558;9.234;2023-02-24T03:59:28;13.30;;;8.50;;
21979;SDS011;11154;48.558;9.234;2023-02-24T04:01:42;11.25;;;8.23;;
21979;SDS011;11154;48.558;9.234;2023-02-24T04:06:00;15.85;;;7.68;;
21979;SDS011;11154;48.558;9.234;2023-02-24T04:08:10;14.90;;;7.10;;
21979;SDS011;11154;48.558;9.234;2023-02-24T04:10:13;16.52;;;7.32;;
21979;SDS011;11154;48.558;9.234;2023-02-24T04:12:23;15.35;;;6.38;;
21979;SDS011;11154;48.558;9.234;2023-02-24T04:14:30;11.00;;;6.82;;
21979;SDS011;11154;48.558;9.234;2023-02-24T04:16:34;13.73;;;6.88;;
21979;SDS011;11154;48.558;9.234;2023-02-24T04:18:42;16.95;;;7.57;;
21979;SDS011;11154;48.558;9.234;2023-02-24T04:20:47;13.43;;;7.43;;
21979;SDS011;11154;48.558;9.234;2023-02-24T04:22:58;12.73;;;7.10;;
21979;SDS011;11154;48.558;9.234;2023-02-24T04:25:07;11.77;;;7.53;;
21979;SDS011;11154;48.558;9.234;2023-02-24T04:27:12;14.20;;;7.88;;
21979;SDS011;11154;48.558;9.234;2023-02-24T04:29:19;12.50;;;7.20;;
21979;SDS011;11154;48.558;9.234;2023-02-24T04:31:23;11.43;;;7.03;;
21979;SDS011;11154;48.558;9.234;2023-02-24T04:33:27;11.68;;;6.75;;
21979;SDS011;11154;48.558;9.234;2023-02-24T04:35:29;12.23;;;6.43;;
21979;SDS011;11154;48.558;9.234;2023-02-24T04:37:32;13.82;;;6.45;;
21979;SDS011;11154;48.558;9.234;2023-02-24T04:39:36;13.50;;;6.78;;
21979;SDS011;11154;48.558;9.234;2023-02-24T04:41:38;10.93;;;5.45;;
21979;SDS011;11154;48.558;9.234;2023-02-24T04:43:39;10.90;;;6.50;;
21979;SDS011;11154;48.558;9.234;2023-02-24T04:45:42;15.02;;;6.43;;
21979;SDS011;11154;48.558;9.234;2023-02-24T04:47:44;13.38;;;6.72;;
21979;SDS011;11154;48.558;9.234;2023-02-24T04:49:48;12.70;;;6.10;;
21979;SDS011;11154;48.558;9.234;2023-02-24T04:51:50;14.20;;;7.05;;
21979;SDS011;11154;48.558;9.234;2023-02-24T04:53:51;15.23;;;6.28;;
21979;SDS011;11154;48.558;9.234;2023-02-24T04:55:54;10.70;;;6.22;;
21979;SDS011;11154;48.558;9.234;2023-02-24T04:57:56;11.27;;;5.95;;
21979;SDS011;11154;48.558;9.234;2023-02-24T04:59:58;12.43;;;6.97;;
21979;SDS011;11154;48.558;9.234;2023-02-24T05:02:01;14.15;;;6.68;;
21979;SDS011;11154;48.558;9.234;2023-02-24T05:04:03;13.88;;;7.30;;
21979;SDS011;11154;48.558;9.234;2023-02-24T05:06:05;13.07;;;7.10;;
21979;SDS011;11154;48.558;9.234;2023-02-24T05:08:08;13.15;;;6.72;;
21979;SDS011;11154;48.558;9.234;2023-02-24T05:10:10;14.32;;;7.50;;
21979;SDS011;11154;48.558;9.234;2023-02-24T05:12:12;11.80;;;6.72;;
21979;SDS011;11154;48.558;9.234;2023-02-24T05:14:14;13.77;;;7.68;;
21979;SDS011;11154;48.558;9.234;2023-02-24T05:16:17;11.57;;;7.05;;
21979;SDS011;11154;48.558;9.234;2023-02-24T05:18:21;15.25;;;7.32;;
21979;SDS011;11154;48.558;9.234;2023-02-24T05:20:23;16.90;;;7.25;;
21979;SDS011;11154;48.558;9.234;2023-02-24T05:22:42;14.10;;;8.43;;
21979;SDS011;11154;48.558;9.234;2023-02-24T05:24:44;13.52;;;7.60;;
21979;SDS011;11154;48.558;9.234;2023-02-24T05:26:46;13.27;;;7.50;;
21979;SDS011;11154;48.558;9.234;2023-02-24T05:28:48;15.20;;;7.88;;
21979;SDS011;11154;48.558;9.234;2023-02-24T05:30:51;14.18;;;7.25;;
21979;SDS011;11154;48.558;9.234;2023-02-24T05:32:53;14.32;;;7.38;;
21979;SDS011;11154;48.558;9.234;2023-02-24T05:34:56;18.75;;;7.38;;
21979;SDS011;11154;48.558;9.234;2023-02-24T05:36:59;15.88;;;7.90;;
21979;SDS011;11154;48.558;9.234;2023-02-24T05:39:06;18.92;;;8.32;;
21979;SDS011;11154;48.558;9.234;2023-02-24T05:41:12;21.33;;;8.85;;
21979;SDS011;11154;48.558;9.234;2023-02-24T05:43:16;17.38;;;9.18;;
21979;SDS011;11154;48.558;9.234;2023-02-24T05:45:18;15.55;;;7.93;;
21979;SDS011;11154;48.558;9.234;2023-02-24T05:47:19;20.08;;;9.20;;
21979;SDS011;11154;48.558;9.234;2023-02-24T05:49:23;20.50;;;10.07;;
21979;SDS011;11154;48.558;9.234;2023-02-24T05:51:30;22.35;;;9.73;;
21979;SDS011;11154;48.558;9.234;2023-02-24T05:53:34;19.55;;;10.23;;
21979;SDS011;11154;48.558;9.234;2023-02-24T05:55:40;20.33;;;10.63;;
21979;SDS011;11154;48.558;9.234;2023-02-24T05:57:42;20.45;;;10.43;;
21979;SDS011;11154;48.558;9.234;2023-02-24T05:59:44;19.65;;;10.77;;
21979;SDS011;11154;48.558;9.234;2023-02-24T06:01:46;22.33;;;10.45;;
21979;SDS011;11154;48.558;9.234;2023-02-24T06:03:51;22.45;;;10.65;;
21979;SDS011;11154;48.558;9.234;2023-02-24T06:05:53;19.00;;;9.88;;
21979;SDS011;11154;48.558;9.234;2023-02-24T06:07:59;23.85;;;11.20;;
21979;SDS011;11154;48.558;9.234;2023-02-24T06:10:05;18.45;;;10.50;;
21979;SDS011;11154;48.558;9.234;2023-02-24T06:12:09;24.25;;;11.35;;
21979;SDS011;11154;48.558;9.234;2023-02-24T06:14:13;18.58;;;10.70;;
21979;SDS011;11154;48.558;9.234;2023-02-24T06:16:16;24.70;;;10.70;;
21979;SDS011;11154;48.558;9.234;2023-02-24T06:18:19;24.30;;;10.70;;
21979;SDS011;11154;48.558;9.234;2023-02-24T06:20:21;25.58;;;11.68;;
21979;SDS011;11154;48.558;9.234;2023-02-24T06:22:24;23.10;;;11.38;;
21979;SDS011;11154;48.558;9.234;2023-02-24T06:24:28;26.38;;;12.65;;
21979;SDS011;11154;48.558;9.234;2023-02-24T06:26:31;23.55;;;12.85;;
21979;SDS011;11154;48.558;9.234;2023-02-24T06:28:35;24.80;;;12.32;;
21979;SDS011;11154;48.558;9.234;2023-02-24T06:30:37;20.15;;;11.00;;
21979;SDS011;11154;48.558;9.234;2023-02-24T06:32:39;22.13;;;11.23;;
21979;SDS011;11154;48.558;9.234;2023-02-24T06:34:40;25.40;;;11.23;;
21979;SDS011;11154;48.558;9.234;2023-02-24T06:36:42;24.02;;;10.95;;
21979;SDS011;11154;48.558;9.234;2023-02-24T06:38:46;22.25;;;10.88;;
21979;SDS011;11154;48.558;9.234;2023-02-24T06:40:49;25.48;;;11.40;;
21979;SDS011;11154;48.558;9.234;2023-02-24T06:42:54;23.27;;;11.15;;
21979;SDS011;11154;48.558;9.234;2023-02-24T06:44:56;27.80;;;11.55;;
21979;SDS011;11154;48.558;9.234;2023-02-24T06:46:58;23.85;;;12.65;;
21979;SDS011;11154;48.558;9.234;2023-02-24T06:49:00;27.00;;;13.30;;
21979;SDS011;11154;48.558;9.234;2023-02-24T06:51:03;37.40;;;13.48;;
21979;SDS011;11154;48.558;9.234;2023-02-24T06:53:06;38.03;;;15.23;;
21979;SDS011;11154;48.558;9.234;2023-02-24T06:55:16;46.97;;;16.48;;
21979;SDS011;11154;48.558;9.234;2023-02-24T06:57:26;40.63;;;15.40;;
21979;SDS011;11154;48.558;9.234;2023-02-24T06:59:31;42.90;;;15.65;;
21979;SDS011;11154;48.558;9.234;2023-02-24T07:01:33;37.08;;;14.18;;
21979;SDS011;11154;48.558;9.234;2023-02-24T07:03:44;33.97;;;14.57;;
21979;SDS011;11154;48.558;9.234;2023-02-24T07:06:02;37.33;;;15.48;;
21979;SDS011;11154;48.558;9.234;2023-02-24T07:08:20;40.15;;;16.98;;
21979;SDS011;11154;48.558;9.234;2023-02-24T07:10:22;36.65;;;16.42;;
21979;SDS011;11154;48.558;9.234;2023-02-24T07:12:26;40.42;;;16.55;;
21979;SDS011;11154;48.558;9.234;2023-02-24T07:14:28;46.00;;;17.10;;
21979;SDS011;11154;48.558;9.234;2023-02-24T07:16:30;37.97;;;16.20;;
21979;SDS011;11154;48.558;9.234;2023-02-24T07:18:34;42.95;;;16.73;;
21979;SDS011;11154;48.558;9.234;2023-02-24T07:20:39;47.33;;;17.77;;
21979;SDS011;11154;48.558;9.234;2023-02-24T07:22:46;43.28;;;16.85;;
21979;SDS011;11154;48.558;9.234;2023-02-24T07:24:47;43.35;;;16.73;;
21979;SDS011;11154;48.558;9.234;2023-02-24T07:26:53;40.92;;;16.90;;
21979;SDS011;11154;48.558;9.234;2023-02-24T07:28:58;42.20;;;17.50;;
21979;SDS011;11154;48.558;9.234;2023-02-24T07:31:03;42.58;;;17.65;;
21979;SDS011;11154;48.558;9.234;2023-02-24T07:33:07;42.60;;;17.60;;
21979;SDS011;11154;48.558;9.234;2023-02-24T07:35:09;43.17;;;17.70;;
21979;SDS011;11154;48.558;9.234;2023-02-24T07:37:11;38.15;;;16.83;;
21979;SDS011;11154;48.558;9.234;2023-02-24T07:39:13;49.88;;;17.65;;
21979;SDS011;11154;48.558;9.234;2023-02-24T07:41:15;42.03;;;15.93;;
21979;SDS011;11154;48.558;9.234;2023-02-24T07:43:18;51.65;;;18.20;;
21979;SDS011;11154;48.558;9.234;2023-02-24T07:45:21;50.45;;;18.08;;
21979;SDS011;11154;48.558;9.234;2023-02-24T07:47:23;42.28;;;17.88;;
21979;SDS011;11154;48.558;9.234;2023-02-24T07:49:25;42.88;;;17.23;;
21979;SDS011;11154;48.558;9.234;2023-02-24T07:51:29;42.85;;;17.10;;
21979;SDS011;11154;48.558;9.234;2023-02-24T07:53:31;41.95;;;16.98;;
21979;SDS011;11154;48.558;9.234;2023-02-24T07:55:33;40.28;;;17.48;;
21979;SDS011;11154;48.558;9.234;2023-02-24T07:57:35;37.20;;;15.50;;
21979;SDS011;11154;48.558;9.234;2023-02-24T07:59:37;37.50;;;17.45;;
21979;SDS011;11154;48.558;9.234;2023-02-24T08:01:47;38.40;;;15.52;;
21979;SDS011;11154;48.558;9.234;2023-02-24T08:03:55;41.15;;;15.52;;
21979;SDS011;11154;48.558;9.234;2023-02-24T08:06:00;36.78;;;15.15;;
21979;SDS011;11154;48.558;9.234;2023-02-24T08:08:14;38.10;;;14.68;;
21979;SDS011;11154;48.558;9.234;2023-02-24T08:10:19;34.47;;;13.13;;
21979;SDS011;11154;48.558;9.234;2023-02-24T08:12:24;37.25;;;13.98;;
21979;SDS011;11154;48.558;9.234;2023-02-24T08:14:27;27.58;;;12.95;;
21979;SDS011;11154;48.558;9.234;2023-02-24T08:16:32;31.20;;;13.52;;
21979;SDS011;11154;48.558;9.234;2023-02-24T08:18:39;31.73;;;13.85;;
21979;SDS011;11154;48.558;9.234;2023-02-24T08:20:47;33.90;;;13.88;;
21979;SDS011;11154;48.558;9.234;2023-02-24T08:22:52;30.42;;;13.23;;
21979;SDS011;11154;48.558;9.234;2023-02-24T08:24:54;24.80;;;13.32;;
21979;SDS011;11154;48.558;9.234;2023-02-24T08:26:59;26.20;;;13.18;;
21979;SDS011;11154;48.558;9.234;2023-02-24T08:29:04;23.80;;;12.88;;
21979;SDS011;11154;48.558;9.234;2023-02-24T08:31:06;25.75;;;12.63;;
21979;SDS011;11154;48.558;9.234;2023-02-24T08:33:12;27.50;;;12.48;;
21979;SDS011;11154;48.558;9.234;2023-02-24T08:35:19;25.77;;;12.40;;
21979;SDS011;11154;48.558;9.234;2023-02-24T08:37:22;26.42;;;11.98;;
21979;SDS011;11154;48.558;9.234;2023-02-24T08:39:25;22.55;;;11.48;;
21979;SDS011;11154;48.558;9.234;2023-02-24T08:41:29;21.17;;;10.93;;
21979;SDS011;11154;48.558;9.234;2023-02-24T08:43:45;25.30;;;10.88;;
21979;SDS011;11154;48.558;9.234;2023-02-24T08:45:49;22.08;;;11.73;;
21979;SDS011;11154;48.558;9.234;2023-02-24T08:47:55;24.10;;;10.68;;
21979;SDS011;11154;48.558;9.234;2023-02-24T08:49:59;21.85;;;10.20;;
21979;SDS011;11154;48.558;9.234;2023-02-24T08:52:02;22.85;;;10.30;;
21979;SDS011;11154;48.558;9.234;2023-02-24T08:54:07;21.30;;;10.40;;
21979;SDS011;11154;48.558;9.234;2023-02-24T08:56:14;20.80;;;10.27;;
21979;SDS011;11154;48.558;9.234;2023-02-24T08:58:22;18.25;;;10.15;;
21979;SDS011;11154;48.558;9.234;2023-02-24T09:00:27;17.85;;;8.88;;
21979;SDS011;11154;48.558;9.234;2023-02-24T09:02:47;17.25;;;8.60;;
21979;SDS011;11154;48.558;9.234;2023-02-24T09:04:50;16.42;;;8.77;;
21979;SDS011;11154;48.558;9.234;2023-02-24T09:06:53;16.60;;;8.52;;
21979;SDS011;11154;48.558;9.234;2023-02-24T09:08:58;18.55;;;9.40;;
21979;SDS011;11154;48.558;9.234;2023-02-24T09:11:19;19.65;;;9.15;;
21979;SDS011;11154;48.558;9.234;2023-02-24T09:13:21;19.95;;;8.75;;
21979;SDS011;11154;48.558;9.234;2023-02-24T09:17:40;20.23;;;9.82;;
21979;SDS011;11154;48.558;9.234;2023-02-24T09:22:43;19.15;;;8.43;;
21979;SDS011;11154;48.558;9.234;2023-02-24T09:24:59;11.27;;;8.25;;
21979;SDS011;11154;48.558;9.234;2023-02-24T09:27:17;18.15;;;8.30;;
21979;SDS011;11154;48.558;9.234;2023-02-24T09:29:19;14.63;;;8.65;;
21979;SDS011;11154;48.558;9.234;2023-02-24T09:31:33;14.40;;;9.25;;
21979;SDS011;11154;48.558;9.234;2023-02-24T09:33:47;17.85;;;8.98;;
21979;SDS011;11154;48.558;9.234;2023-02-24T09:35:54;15.05;;;9.35;;
21979;SDS011;11154;48.558;9.234;2023-02-24T09:38:08;20.95;;;11.48;;
21979;SDS011;11154;48.558;9.234;2023-02-24T09:40:12;14.90;;;9.40;;
21979;SDS011;11154;48.558;9.234;2023-02-24T09:42:38;18.02;;;10.48;;
21979;SDS011;11154;48.558;9.234;2023-02-24T09:44:47;18.20;;;10.30;;
21979;SDS011;11154;48.558;9.234;2023-02-24T09:46:53;19.88;;;10.13;;
21979;SDS011;11154;48.558;9.234;2023-02-24T09:48:59;25.20;;;9.68;;
21979;SDS011;11154;48.558;9.234;2023-02-24T09:51:12;18.35;;;9.98;;
21979;SDS011;11154;48.558;9.234;2023-02-24T09:53:21;19.90;;;10.73;;
21979;SDS011;11154;48.558;9.234;2023-02-24T09:55:30;18.30;;;10.23;;
21979;SDS011;11154;48.558;9.234;2023-02-24T09:57:45;22.23;;;10.50;;
21979;SDS011;11154;48.558;9.234;2023-02-24T10:00:07;17.90;;;10.15;;
21979;SDS011;11154;48.558;9.234;2023-02-24T10:02:36;15.45;;;9.50;;
21979;SDS011;11154;48.558;9.234;2023-02-24T10:04:50;19.45;;;10.35;;
21979;SDS011;11154;48.558;9.234;2023-02-24T10:07:07;20.20;;;9.30;;
21979;SDS011;11154;48.558;9.234;2023-02-24T10:09:16;16.85;;;9.85;;
21979;SDS011;11154;48.558;9.234;2023-02-24T10:11:25;19.20;;;9.60;;
21979;SDS011;11154;48.558;9.234;2023-02-24T10:13:34;18.70;;;8.80;;
21979;SDS011;11154;48.558;9.234;2023-02-24T10:15:40;14.43;;;8.88;;
21979;SDS011;11154;48.558;9.234;2023-02-24T10:18:03;20.98;;;10.75;;
21979;SDS011;11154;48.558;9.234;2023-02-24T10:20:28;19.35;;;10.13;;
21979;SDS011;11154;48.558;9.234;2023-02-24T10:22:39;14.25;;;9.60;;
21979;SDS011;11154;48.558;9.234;2023-02-24T10:24:50;14.40;;;8.93;;
21979;SDS011;11154;48.558;9.234;2023-02-24T10:27:12;14.75;;;9.13;;
21979;SDS011;11154;48.558;9.234;2023-02-24T10:29:25;16.38;;;8.75;;
21979;SDS011;11154;48.558;9.234;2023-02-24T10:31:39;14.70;;;8.85;;
21979;SDS011;11154;48.558;9.234;2023-02-24T10:33:46;17.10;;;8.80;;
21979;SDS011;11154;48.558;9.234;2023-02-24T10:35:48;15.70;;;8.52;;
21979;SDS011;11154;48.558;9.234;2023-02-24T10:37:50;16.90;;;8.57;;
21979;SDS011;11154;48.558;9.234;2023-02-24T10:39:55;12.82;;;8.25;;
21979;SDS011;11154;48.558;9.234;2023-02-24T10:41:59;13.00;;;8.80;;
21979;SDS011;11154;48.558;9.234;2023-02-24T10:44:20;16.48;;;8.57;;
21979;SDS011;11154;48.558;9.234;2023-02-24T10:46:26;14.82;;;9.07;;
21979;SDS011;11154;48.558;9.234;2023-02-24T10:48:33;14.95;;;8.07;;
21979;SDS011;11154;48.558;9.234;2023-02-24T10:50:40;15.20;;;8.73;;
21979;SDS011;11154;48.558;9.234;2023-02-24T10:52:43;17.88;;;8.57;;
21979;SDS011;11154;48.558;9.234;2023-02-24T10:55:13;19.42;;;9.13;;
21979;SDS011;11154;48.558;9.234;2023-02-24T10:57:50;16.33;;;8.18;;
21979;SDS011;11154;48.558;9.234;2023-02-24T11:00:04;14.65;;;8.95;;
21979;SDS011;11154;48.558;9.234;2023-02-24T11:02:50;23.50;;;9.43;;
21979;SDS011;11154;48.558;9.234;2023-02-24T11:05:06;16.42;;;9.18;;
21979;SDS011;11154;48.558;9.234;2023-02-24T11:07:23;18.90;;;9.93;;
21979;SDS011;11154;48.558;9.234;2023-02-24T11:09:32;15.82;;;8.82;;
21979;SDS011;11154;48.558;9.234;2023-02-24T11:11:42;15.02;;;8.60;;
21979;SDS011;11154;48.558;9.234;2023-02-24T11:14:03;16.80;;;8.73;;
21979;SDS011;11154;48.558;9.234;2023-02-24T11:16:24;15.75;;;8.10;;
21979;SDS011;11154;48.558;9.234;2023-02-24T11:18:46;16.35;;;7.95;;
21979;SDS011;11154;48.558;9.234;2023-02-24T11:20:50;19.70;;;8.55;;
21979;SDS011;11154;48.558;9.234;2023-02-24T11:22:55;16.48;;;8.32;;
21979;SDS011;11154;48.558;9.234;2023-02-24T11:24:57;13.00;;;8.05;;
21979;SDS011;11154;48.558;9.234;2023-02-24T11:27:06;15.73;;;7.75;;
21979;SDS011;11154;48.558;9.234;2023-02-24T11:29:13;13.55;;;8.05;;
21979;SDS011;11154;48.558;9.234;2023-02-24T11:31:30;13.57;;;7.97;;
21979;SDS011;11154;48.558;9.234;2023-02-24T11:33:41;12.20;;;7.63;;
21979;SDS011;11154;48.558;9.234;2023-02-24T11:35:55;14.77;;;7.60;;
21979;SDS011;11154;48.558;9.234;2023-02-24T11:38:06;18.83;;;8.32;;
21979;SDS011;11154;48.558;9.234;2023-02-24T11:40:27;17.65;;;7.65;;
21979;SDS011;11154;48.558;9.234;2023-02-24T11:42:35;14.98;;;8.13;;
21979;SDS011;11154;48.558;9.234;2023-02-24T11:44:43;12.07;;;7.78;;
21979;SDS011;11154;48.558;9.234;2023-02-24T11:46:51;20.73;;;8.48;;
21979;SDS011;11154;48.558;9.234;2023-02-24T11:48:56;15.23;;;7.88;;
21979;SDS011;11154;48.558;9.234;2023-02-24T11:51:00;14.25;;;7.90;;
21979;SDS011;11154;48.558;9.234;2023-02-24T11:53:08;20.92;;;8.40;;
21979;SDS011;11154;48.558;9.234;2023-02-24T11:55:21;11.50;;;6.85;;
21979;SDS011;11154;48.558;9.234;2023-02-24T11:57:34;18.92;;;8.15;;
21979;SDS011;11154;48.558;9.234;2023-02-24T11:59:41;15.02;;;7.57;;
21979;SDS011;11154;48.558;9.234;2023-02-24T12:01:48;19.70;;;7.82;;
21979;SDS011;11154;48.558;9.234;2023-02-24T12:04:00;16.75;;;7.25;;
21979;SDS011;11154;48.558;9.234;2023-02-24T12:06:13;16.25;;;7.25;;
21979;SDS011;11154;48.558;9.234;2023-02-24T12:08:22;13.57;;;7.10;;
21979;SDS011;11154;48.558;9.234;2023-02-24T12:10:28;16.45;;;7.25;;
21979;SDS011;11154;48.558;9.234;2023-02-24T12:12:33;16.90;;;7.10;;
21979;SDS011;11154;48.558;9.234;2023-02-24T12:14:40;13.88;;;7.43;;
21979;SDS011;11154;48.558;9.234;2023-02-24T12:16:49;17.27;;;7.85;;
21979;SDS011;11154;48.558;9.234;2023-02-24T12:21:03;11.85;;;6.35;;
21979;SDS011;11154;48.558;9.234;2023-02-24T12:23:11;11.48;;;7.05;;
21979;SDS011;11154;48.558;9.234;2023-02-24T12:25:17;15.25;;;7.32;;
21979;SDS011;11154;48.558;9.234;2023-02-24T12:27:25;16.27;;;6.90;;
21979;SDS011;11154;48.558;9.234;2023-02-24T12:29:46;15.80;;;6.95;;
21979;SDS011;11154;48.558;9.234;2023-02-24T12:32:00;13.13;;;6.45;;
21979;SDS011;11154;48.558;9.234;2023-02-24T12:34:11;16.13;;;6.55;;
21979;SDS011;11154;48.558;9.234;2023-02-24T12:36:26;15.35;;;6.32;;
21979;SDS011;11154;48.558;9.234;2023-02-24T12:38:45;14.10;;;6.32;;
21979;SDS011;11154;48.558;9.234;2023-02-24T12:40:56;16.75;;;6.20;;
21979;SDS011;11154;48.558;9.234;2023-02-24T12:43:13;17.40;;;6.55;;